Jaru, Brazil
Current Conditions -  °F | °C
As of 2:00 PM on Friday 24 Oct 2014 (Local Time) from SBPV Reporting Station
Scattered Clouds Scattered Clouds  
Wind Chill: 88°   Ceiling: Unl
Heat Index: 94°   Visibility: 6mi
Dew Point: 72°   Wind: 5mph
Humidity: 58%   Direction: 290°WNW
Pressure: 29.74"   Gusts: NA
Location:  10.43°S, 62.45°W
Report Text: SBPV 241800Z 29004KT 9999 SCT023 FEW025TCU SCT090 31/22 Q1007
Loading
Personal Weather Stations






























Interactive Weather Map
Tropical Storm Tracking
New forecast layout! Learn more

10-Day Weather Forecast

Advertisements
Track Severe Weather on mobile